Airport View

Enter AWOS ICAO identifier for current METAR.

ex. KFNL

KETB 030000Z AUTO 25008KT 10SM CLR 30/18 A2975 RMK AO2

3 Jun 2020 00:04

Frequency: 120.0

Phone: 262-334-6161

Other Area AWOS: KMWC - KUES - KSBM - KUNU

TAF KUES 022341Z 0300/0324 25012KT P6SM FEW250 FM030300 24005KT P6SM VCTS BKN080CB TEMPO 0303/0305 4SM TSRA OVC050CB FM030500 27005KT P6SM -SHRA VCTS OVC050CB FM030700 28003KT P6SM -SHRA SCT050 OVC100 FM031200 28006KT P6SM BKN070 FM031800 31007KT P6SM FEW250